UKLR/RWN METAR and TAF weather

Enter ICAO airport designator
Station Type Date Time Source
UKLR METAR 2019/10/15 15:00 UTC NOAA

UKLR 151500Z 13003MPS 090V160 CAVOK 22/05 Q1017 NOSIG


Station Type Date Time Source
UKLR Decoded METAR 2019/10/15 15:00 UTC NOAA

Rivne, Ukraine (UKLR) 50-35N 026-08E
Oct 15, 2019 - 11:00 AM EDT / 2019.10.15 1500 UTC
Wind: from the SE (130 degrees) at 7 MPH (6 KT) (direction variable):0
Visibility: greater than 7 mile(s):0
Temperature: 71 F (22 C)
Dew Point: 41 F (5 C)
Relative Humidity: 32%
Pressure (altimeter): 30.03 in. Hg (1017 hPa)
ob: UKLR 151500Z 13003MPS 090V160 CAVOK 22/05 Q1017 NOSIG
cycle: 15

Station Type Date Time Source
UKLR TAF 2019/08/16 12:15 UTC NOAA

TAF TAF UKLR 161105Z 1612/1821 35003MPS 9999 BKN020 SCT023CB

Example: see airport list